sensor_id;sensor_type;location;lat;lon;timestamp;pressure;altitude;pressure_sealevel;temperature;humidity
56456;BME280;42354;53.218;6.564;2022-07-12T00:02:10;102194.75;;;15.32;100.00
56456;BME280;42354;53.218;6.564;2022-07-12T00:04:35;102193.16;;;15.28;100.00
56456;BME280;42354;53.218;6.564;2022-07-12T00:07:00;102179.75;;;15.25;100.00
56456;BME280;42354;53.218;6.564;2022-07-12T00:09:26;102185.00;;;15.28;100.00
56456;BME280;42354;53.218;6.564;2022-07-12T00:11:51;102181.34;;;15.29;100.00
56456;BME280;42354;53.218;6.564;2022-07-12T00:14:16;102190.53;;;15.26;100.00
56456;BME280;42354;53.218;6.564;2022-07-12T00:16:41;102189.66;;;15.26;100.00
56456;BME280;42354;53.218;6.564;2022-07-12T00:19:07;102193.16;;;15.28;100.00
56456;BME280;42354;53.218;6.564;2022-07-12T00:21:32;102190.53;;;15.26;100.00
56456;BME280;42354;53.218;6.564;2022-07-12T00:23:57;102185.09;;;15.26;100.00
56456;BME280;42354;53.218;6.564;2022-07-12T00:26:22;102177.03;;;15.25;100.00
56456;BME280;42354;53.218;6.564;2022-07-12T00:28:48;102175.19;;;15.25;100.00
56456;BME280;42354;53.218;6.564;2022-07-12T00:31:13;102174.31;;;15.25;100.00
56456;BME280;42354;53.218;6.564;2022-07-12T00:33:38;102165.19;;;15.26;100.00
56456;BME280;42354;53.218;6.564;2022-07-12T00:36:07;102164.22;;;15.27;100.00
56456;BME280;42354;53.218;6.564;2022-07-12T00:38:32;102166.94;;;15.27;100.00
56456;BME280;42354;53.218;6.564;2022-07-12T00:40:57;102160.63;;;15.26;100.00
56456;BME280;42354;53.218;6.564;2022-07-12T00:43:23;102165.97;;;15.28;100.00
56456;BME280;42354;53.218;6.564;2022-07-12T00:45:48;102164.06;;;15.30;100.00
56456;BME280;42354;53.218;6.564;2022-07-12T00:48:13;102168.44;;;15.32;100.00
56456;BME280;42354;53.218;6.564;2022-07-12T00:50:39;102167.50;;;15.33;100.00
56456;BME280;42354;53.218;6.564;2022-07-12T00:53:05;102166.59;;;15.33;100.00
56456;BME280;42354;53.218;6.564;2022-07-12T00:55:30;102159.41;;;15.32;100.00
56456;BME280;42354;53.218;6.564;2022-07-12T00:57:55;102155.03;;;15.29;100.00
56456;BME280;42354;53.218;6.564;2022-07-12T01:00:23;102158.78;;;15.27;100.00
56456;BME280;42354;53.218;6.564;2022-07-12T01:02:49;102161.59;;;15.25;100.00
56456;BME280;42354;53.218;6.564;2022-07-12T01:05:15;102172.53;;;15.24;100.00
56456;BME280;42354;53.218;6.564;2022-07-12T01:07:40;102173.41;;;15.24;100.00
56456;BME280;42354;53.218;6.564;2022-07-12T01:10:06;102173.34;;;15.26;100.00
56456;BME280;42354;53.218;6.564;2022-07-12T01:12:32;102179.56;;;15.28;100.00
56456;BME280;42354;53.218;6.564;2022-07-12T01:14:57;102178.78;;;15.26;100.00
56456;BME280;42354;53.218;6.564;2022-07-12T01:17:24;102173.34;;;15.26;100.00
56456;BME280;42354;53.218;6.564;2022-07-12T01:19:54;102176.06;;;15.26;100.00
56456;BME280;42354;53.218;6.564;2022-07-12T01:22:20;102182.28;;;15.28;100.00
56456;BME280;42354;53.218;6.564;2022-07-12T01:24:46;102176.06;;;15.26;100.00
56456;BME280;42354;53.218;6.564;2022-07-12T01:27:12;102182.53;;;15.23;100.00
56456;BME280;42354;53.218;6.564;2022-07-12T01:29:37;102181.75;;;15.21;100.00
56456;BME280;42354;53.218;6.564;2022-07-12T01:32:03;102184.53;;;15.20;100.00
56456;BME280;42354;53.218;6.564;2022-07-12T01:34:48;102179.19;;;15.18;100.00
56456;BME280;42354;53.218;6.564;2022-07-12T01:37:14;102190.16;;;15.16;100.00
56456;BME280;42354;53.218;6.564;2022-07-12T01:39:39;102191.19;;;15.14;100.00
56456;BME280;42354;53.218;6.564;2022-07-12T01:42:04;102193.81;;;15.15;100.00
56456;BME280;42354;53.218;6.564;2022-07-12T01:44:30;102192.06;;;15.14;100.00
56456;BME280;42354;53.218;6.564;2022-07-12T01:46:58;102192.94;;;15.15;100.00
56456;BME280;42354;53.218;6.564;2022-07-12T01:49:23;102191.19;;;15.14;100.00
56456;BME280;42354;53.218;6.564;2022-07-12T01:51:49;102195.75;;;15.13;100.00
56456;BME280;42354;53.218;6.564;2022-07-12T01:54:14;102190.38;;;15.12;100.00
56456;BME280;42354;53.218;6.564;2022-07-12T01:56:39;102191.34;;;15.11;100.00
56456;BME280;42354;53.218;6.564;2022-07-12T01:59:05;102192.38;;;15.08;100.00
56456;BME280;42354;53.218;6.564;2022-07-12T02:01:30;102184.31;;;15.07;100.00
56456;BME280;42354;53.218;6.564;2022-07-12T02:03:56;102190.63;;;15.07;100.00
56456;BME280;42354;53.218;6.564;2022-07-12T02:06:21;102183.44;;;15.06;100.00
56456;BME280;42354;53.218;6.564;2022-07-12T02:08:47;102183.34;;;15.08;100.00
56456;BME280;42354;53.218;6.564;2022-07-12T02:11:12;102179.84;;;15.06;100.00
56456;BME280;42354;53.218;6.564;2022-07-12T02:13:38;102174.47;;;15.04;100.00
56456;BME280;42354;53.218;6.564;2022-07-12T02:16:04;102180.88;;;15.03;100.00
56456;BME280;42354;53.218;6.564;2022-07-12T02:18:31;102181.84;;;15.02;100.00
56456;BME280;42354;53.218;6.564;2022-07-12T02:20:57;102183.75;;;15.00;100.00
56456;BME280;42354;53.218;6.564;2022-07-12T02:23:22;102187.69;;;14.95;100.00
56456;BME280;42354;53.218;6.564;2022-07-12T02:25:47;102166.97;;;14.92;100.00
56456;BME280;42354;53.218;6.564;2022-07-12T02:28:12;102176.00;;;14.93;100.00
56456;BME280;42354;53.218;6.564;2022-07-12T02:30:37;102184.97;;;14.95;100.00
56456;BME280;42354;53.218;6.564;2022-07-12T02:33:03;102186.78;;;14.94;100.00
56456;BME280;42354;53.218;6.564;2022-07-12T02:35:28;102185.84;;;14.95;100.00
56456;BME280;42354;53.218;6.564;2022-07-12T02:37:53;102168.56;;;14.96;100.00
56456;BME280;42354;53.218;6.564;2022-07-12T02:40:19;102156.75;;;14.97;100.00
56456;BME280;42354;53.218;6.564;2022-07-12T02:43:03;102156.66;;;14.99;100.00
56456;BME280;42354;53.218;6.564;2022-07-12T02:45:28;102162.09;;;14.99;100.00
56456;BME280;42354;53.218;6.564;2022-07-12T02:47:54;102152.19;;;14.98;100.00
56456;BME280;42354;53.218;6.564;2022-07-12T02:50:19;102148.75;;;14.94;100.00
56456;BME280;42354;53.218;6.564;2022-07-12T02:52:44;102152.50;;;14.92;100.00
56456;BME280;42354;53.218;6.564;2022-07-12T02:55:09;102153.56;;;14.89;100.00
56456;BME280;42354;53.218;6.564;2022-07-12T02:57:37;102155.38;;;14.89;100.00
56456;BME280;42354;53.218;6.564;2022-07-12T03:00:03;102158.09;;;14.89;100.00
56456;BME280;42354;53.218;6.564;2022-07-12T03:02:29;102161.63;;;14.91;100.00
56456;BME280;42354;53.218;6.564;2022-07-12T03:04:55;102170.56;;;14.93;100.00
56456;BME280;42354;53.218;6.564;2022-07-12T03:07:20;102159.88;;;14.90;100.00
56456;BME280;42354;53.218;6.564;2022-07-12T03:09:45;102160.81;;;14.89;100.00
56456;BME280;42354;53.218;6.564;2022-07-12T03:12:10;102151.00;;;14.86;100.00
56456;BME280;42354;53.218;6.564;2022-07-12T03:14:37;102161.88;;;14.86;100.00
56456;BME280;42354;53.218;6.564;2022-07-12T03:17:02;102171.78;;;14.87;100.00
56456;BME280;42354;53.218;6.564;2022-07-12T03:19:28;102174.56;;;14.86;100.00
56456;BME280;42354;53.218;6.564;2022-07-12T03:21:53;102173.59;;;14.87;100.00
56456;BME280;42354;53.218;6.564;2022-07-12T03:24:18;102177.13;;;14.89;100.00
56456;BME280;42354;53.218;6.564;2022-07-12T03:26:43;102187.91;;;14.90;100.00
56456;BME280;42354;53.218;6.564;2022-07-12T03:29:08;102180.72;;;14.89;100.00
56456;BME280;42354;53.218;6.564;2022-07-12T03:31:36;102169.84;;;14.89;100.00
56456;BME280;42354;53.218;6.564;2022-07-12T03:34:02;102167.13;;;14.89;100.00
56456;BME280;42354;53.218;6.564;2022-07-12T03:36:27;102163.38;;;14.92;100.00
56456;BME280;42354;53.218;6.564;2022-07-12T03:38:52;102161.47;;;14.94;100.00
56456;BME280;42354;53.218;6.564;2022-07-12T03:41:17;102167.63;;;14.97;100.00
56456;BME280;42354;53.218;6.564;2022-07-12T03:43:43;102172.00;;;15.00;100.00
56456;BME280;42354;53.218;6.564;2022-07-12T03:46:08;102164.91;;;14.97;100.00
56456;BME280;42354;53.218;6.564;2022-07-12T03:48:33;102171.28;;;14.96;100.00
56456;BME280;42354;53.218;6.564;2022-07-12T03:50:58;102169.53;;;14.95;100.00
56456;BME280;42354;53.218;6.564;2022-07-12T03:53:24;102173.13;;;14.96;100.00
56456;BME280;42354;53.218;6.564;2022-07-12T03:55:49;102171.28;;;14.96;100.00
56456;BME280;42354;53.218;6.564;2022-07-12T03:58:14;102176.72;;;14.96;100.00
56456;BME280;42354;53.218;6.564;2022-07-12T04:00:40;102179.44;;;14.96;100.00
56456;BME280;42354;53.218;6.564;2022-07-12T04:03:07;102174.81;;;14.98;100.00
56456;BME280;42354;53.218;6.564;2022-07-12T04:05:33;102167.63;;;14.97;100.00
56456;BME280;42354;53.218;6.564;2022-07-12T04:07:58;102167.53;;;14.99;100.00
56456;BME280;42354;53.218;6.564;2022-07-12T04:10:26;102162.34;;;14.94;100.00
56456;BME280;42354;53.218;6.564;2022-07-12T04:12:51;102165.94;;;14.95;100.00
56456;BME280;42354;53.218;6.564;2022-07-12T04:15:18;102169.69;;;14.92;100.00
56456;BME280;42354;53.218;6.564;2022-07-12T04:17:43;102179.84;;;14.89;100.00
56456;BME280;42354;53.218;6.564;2022-07-12T04:20:08;102173.53;;;14.88;100.00
56456;BME280;42354;53.218;6.564;2022-07-12T04:22:35;102176.16;;;14.90;100.00
56456;BME280;42354;53.218;6.564;2022-07-12T04:25:00;102172.41;;;14.92;100.00
56456;BME280;42354;53.218;6.564;2022-07-12T04:27:28;102176.72;;;14.96;100.00
56456;BME280;42354;53.218;6.564;2022-07-12T04:29:53;102179.38;;;14.98;100.00
56456;BME280;42354;53.218;6.564;2022-07-12T04:32:19;102179.38;;;14.98;100.00
56456;BME280;42354;53.218;6.564;2022-07-12T04:34:45;102184.88;;;14.96;100.00
56456;BME280;42354;53.218;6.564;2022-07-12T04:37:11;102186.56;;;14.99;100.00
56456;BME280;42354;53.218;6.564;2022-07-12T04:39:36;102194.47;;;15.03;100.00
56456;BME280;42354;53.218;6.564;2022-07-12T04:42:02;102181.69;;;15.05;100.00
56456;BME280;42354;53.218;6.564;2022-07-12T04:44:27;102180.56;;;15.09;100.00
56456;BME280;42354;53.218;6.564;2022-07-12T04:46:52;102182.16;;;15.13;100.00
56456;BME280;42354;53.218;6.564;2022-07-12T04:49:18;102177.34;;;15.19;100.00
56456;BME280;42354;53.218;6.564;2022-07-12T04:51:43;102181.75;;;15.21;100.00
56456;BME280;42354;53.218;6.564;2022-07-12T04:54:08;102176.22;;;15.23;100.00
56456;BME280;42354;53.218;6.564;2022-07-12T04:56:36;102181.75;;;15.21;100.00
56456;BME280;42354;53.218;6.564;2022-07-12T04:59:01;102179.09;;;15.20;100.00
56456;BME280;42354;53.218;6.564;2022-07-12T05:01:30;102182.00;;;15.16;100.00
56456;BME280;42354;53.218;6.564;2022-07-12T05:03:55;102185.75;;;15.14;100.00
56456;BME280;42354;53.218;6.564;2022-07-12T05:06:20;102183.09;;;15.12;100.00
56456;BME280;42354;53.218;6.564;2022-07-12T05:08:48;102192.38;;;15.08;100.00
56456;BME280;42354;53.218;6.564;2022-07-12T05:11:13;102187.91;;;15.07;100.00
56456;BME280;42354;53.218;6.564;2022-07-12T05:13:38;102198.69;;;15.09;100.00
56456;BME280;42354;53.218;6.564;2022-07-12T05:16:05;102198.47;;;15.13;100.00
56456;BME280;42354;53.218;6.564;2022-07-12T05:18:30;102206.28;;;15.20;100.00
56456;BME280;42354;53.218;6.564;2022-07-12T05:20:56;102201.50;;;15.25;100.00
56456;BME280;42354;53.218;6.564;2022-07-12T05:23:21;102202.75;;;15.35;100.00
56456;BME280;42354;53.218;6.564;2022-07-12T05:25:46;102201.28;;;15.45;100.00
56456;BME280;42354;53.218;6.564;2022-07-12T05:28:12;102209.84;;;15.55;100.00
56456;BME280;42354;53.218;6.564;2022-07-12T05:30:38;102210.09;;;15.67;100.00
56456;BME280;42354;53.218;6.564;2022-07-12T05:33:03;102196.78;;;15.78;100.00
56456;BME280;42354;53.218;6.564;2022-07-12T05:35:29;102198.22;;;15.86;100.00
56456;BME280;42354;53.218;6.564;2022-07-12T05:37:54;102207.25;;;15.86;100.00
56456;BME280;42354;53.218;6.564;2022-07-12T05:40:19;102203.06;;;15.96;100.00
56456;BME280;42354;53.218;6.564;2022-07-12T05:42:44;102200.06;;;16.01;100.00
56456;BME280;42354;53.218;6.564;2022-07-12T05:45:10;102206.91;;;16.08;100.00
56456;BME280;42354;53.218;6.564;2022-07-12T05:47:35;102207.00;;;16.22;100.00
56456;BME280;42354;53.218;6.564;2022-07-12T05:50:00;102203.50;;;16.36;100.00
56456;BME280;42354;53.218;6.564;2022-07-12T05:52:26;102222.72;;;16.49;100.00
56456;BME280;42354;53.218;6.564;2022-07-12T05:55:09;102215.97;;;16.56;100.00
56456;BME280;42354;53.218;6.564;2022-07-12T05:57:35;102219.19;;;16.62;100.00
56456;BME280;42354;53.218;6.564;2022-07-12T06:00:00;102228.44;;;16.75;100.00
56456;BME280;42354;53.218;6.564;2022-07-12T06:02:25;102235.56;;;16.78;100.00
56456;BME280;42354;53.218;6.564;2022-07-12T06:04:50;102233.63;;;16.80;100.00
56456;BME280;42354;53.218;6.564;2022-07-12T06:07:18;102233.44;;;16.83;100.00
56456;BME280;42354;53.218;6.564;2022-07-12T06:09:43;102235.09;;;16.86;100.00
56456;BME280;42354;53.218;6.564;2022-07-12T06:12:09;102234.22;;;16.85;100.00
56456;BME280;42354;53.218;6.564;2022-07-12T06:14:37;102240.28;;;16.90;100.00
56456;BME280;42354;53.218;6.564;2022-07-12T06:17:02;102238.84;;;16.99;100.00
56456;BME280;42354;53.218;6.564;2022-07-12T06:19:27;102231.09;;;17.07;100.00
56456;BME280;42354;53.218;6.564;2022-07-12T06:21:52;102232.97;;;17.21;100.00
56456;BME280;42354;53.218;6.564;2022-07-12T06:24:17;102228.53;;;17.34;100.00
56456;BME280;42354;53.218;6.564;2022-07-12T06:26:43;102241.59;;;17.43;100.00
56456;BME280;42354;53.218;6.564;2022-07-12T06:29:08;102233.81;;;17.51;99.92
56456;BME280;42354;53.218;6.564;2022-07-12T06:31:34;102238.97;;;17.56;99.79
56456;BME280;42354;53.218;6.564;2022-07-12T06:33:59;102240.34;;;17.63;98.79
56456;BME280;42354;53.218;6.564;2022-07-12T06:36:25;102247.41;;;17.81;99.02
56456;BME280;42354;53.218;6.564;2022-07-12T06:38:50;102247.50;;;18.08;99.09
56456;BME280;42354;53.218;6.564;2022-07-12T06:41:15;102245.91;;;18.32;97.01
56456;BME280;42354;53.218;6.564;2022-07-12T06:43:40;102258.06;;;18.41;95.38
56456;BME280;42354;53.218;6.564;2022-07-12T06:46:06;102246.84;;;18.46;94.85
56456;BME280;42354;53.218;6.564;2022-07-12T06:48:31;102250.63;;;18.57;94.31
56456;BME280;42354;53.218;6.564;2022-07-12T06:50:56;102246.44;;;18.66;94.25
56456;BME280;42354;53.218;6.564;2022-07-12T06:53:21;102249.72;;;18.71;92.56
56456;BME280;42354;53.218;6.564;2022-07-12T06:55:46;102257.88;;;18.85;92.56
56456;BME280;42354;53.218;6.564;2022-07-12T06:58:12;102259.72;;;19.12;92.33
56456;BME280;42354;53.218;6.564;2022-07-12T07:00:37;102255.50;;;19.46;91.41
56456;BME280;42354;53.218;6.564;2022-07-12T07:03:05;102256.97;;;19.77;90.90
56456;BME280;42354;53.218;6.564;2022-07-12T07:05:30;102256.41;;;19.97;89.88
56456;BME280;42354;53.218;6.564;2022-07-12T07:07:55;102249.19;;;19.96;85.14
56456;BME280;42354;53.218;6.564;2022-07-12T07:10:21;102247.97;;;20.00;87.90
56456;BME280;42354;53.218;6.564;2022-07-12T07:12:46;102250.03;;;20.09;86.43
56456;BME280;42354;53.218;6.564;2022-07-12T07:15:11;102246.63;;;20.18;85.42
56456;BME280;42354;53.218;6.564;2022-07-12T07:17:39;102247.69;;;20.41;85.89
56456;BME280;42354;53.218;6.564;2022-07-12T07:20:04;102249.78;;;20.74;83.59
56456;BME280;42354;53.218;6.564;2022-07-12T07:22:30;102243.59;;;21.07;83.92
56456;BME280;42354;53.218;6.564;2022-07-12T07:24:55;102248.56;;;21.26;80.76
56456;BME280;42354;53.218;6.564;2022-07-12T07:27:20;102246.38;;;21.53;77.09
56456;BME280;42354;53.218;6.564;2022-07-12T07:29:45;102253.16;;;21.83;79.79
56456;BME280;42354;53.218;6.564;2022-07-12T07:32:29;102247.72;;;22.16;78.51
56456;BME280;42354;53.218;6.564;2022-07-12T07:34:54;102252.19;;;22.40;75.27
56456;BME280;42354;53.218;6.564;2022-07-12T07:37:20;102247.22;;;22.77;76.06
56456;BME280;42354;53.218;6.564;2022-07-12T07:39:45;102246.56;;;22.96;71.25
56456;BME280;42354;53.218;6.564;2022-07-12T07:42:10;102237.56;;;23.46;74.36
56456;BME280;42354;53.218;6.564;2022-07-12T07:44:35;102241.84;;;23.81;74.56
56456;BME280;42354;53.218;6.564;2022-07-12T07:47:01;102229.38;;;24.17;71.42
56456;BME280;42354;53.218;6.564;2022-07-12T07:49:26;102239.38;;;24.39;68.17
56456;BME280;42354;53.218;6.564;2022-07-12T07:51:51;102251.56;;;24.46;68.92
56456;BME280;42354;53.218;6.564;2022-07-12T07:54:16;102243.56;;;24.33;65.33
56456;BME280;42354;53.218;6.564;2022-07-12T07:56:42;102243.63;;;24.22;69.52
56456;BME280;42354;53.218;6.564;2022-07-12T07:59:07;102244.50;;;24.23;70.51
56456;BME280;42354;53.218;6.564;2022-07-12T08:01:35;102246.38;;;24.22;68.51
56456;BME280;42354;53.218;6.564;2022-07-12T08:04:18;102241.94;;;24.31;66.37
56456;BME280;42354;53.218;6.564;2022-07-12T08:06:43;102244.03;;;24.48;69.27
56456;BME280;42354;53.218;6.564;2022-07-12T08:09:09;102249.72;;;24.66;67.49
56456;BME280;42354;53.218;6.564;2022-07-12T08:11:34;102248.03;;;24.94;67.11
56456;BME280;42354;53.218;6.564;2022-07-12T08:14:00;102246.75;;;24.98;67.34
56456;BME280;42354;53.218;6.564;2022-07-12T08:16:25;102254.56;;;24.93;64.26
56456;BME280;42354;53.218;6.564;2022-07-12T08:18:51;102254.59;;;25.12;66.99
56456;BME280;42354;53.218;6.564;2022-07-12T08:21:16;102252.28;;;25.27;64.27
56456;BME280;42354;53.218;6.564;2022-07-12T08:23:42;102257.78;;;25.27;61.84
56456;BME280;42354;53.218;6.564;2022-07-12T08:26:07;102244.00;;;25.27;66.17
56456;BME280;42354;53.218;6.564;2022-07-12T08:28:35;102241.38;;;25.16;63.17
56456;BME280;42354;53.218;6.564;2022-07-12T08:31:00;102246.91;;;25.16;65.25
56456;BME280;42354;53.218;6.564;2022-07-12T08:33:26;102242.53;;;25.13;62.38
56456;BME280;42354;53.218;6.564;2022-07-12T08:35:51;102235.56;;;24.99;64.61
56456;BME280;42354;53.218;6.564;2022-07-12T08:38:16;102240.75;;;24.93;63.99
56456;BME280;42354;53.218;6.564;2022-07-12T08:40:42;102233.97;;;24.97;65.82
56456;BME280;42354;53.218;6.564;2022-07-12T08:43:07;102241.50;;;24.95;63.93
56456;BME280;42354;53.218;6.564;2022-07-12T08:45:33;102244.28;;;25.14;63.29
56456;BME280;42354;53.218;6.564;2022-07-12T08:47:58;102249.50;;;25.27;64.16
56456;BME280;42354;53.218;6.564;2022-07-12T08:50:23;102236.41;;;25.48;63.33
56456;BME280;42354;53.218;6.564;2022-07-12T08:52:52;102242.78;;;25.58;60.26
56456;BME280;42354;53.218;6.564;2022-07-12T08:57:50;102242.28;;;25.92;61.12
56456;BME280;42354;53.218;6.564;2022-07-12T09:00:16;102231.47;;;25.98;61.41
56456;BME280;42354;53.218;6.564;2022-07-12T09:02:51;102232.97;;;25.93;59.76
56456;BME280;42354;53.218;6.564;2022-07-12T09:05:39;102229.59;;;25.99;59.18
56456;BME280;42354;53.218;6.564;2022-07-12T09:08:04;102234.91;;;26.20;60.08
56456;BME280;42354;53.218;6.564;2022-07-12T09:10:30;102239.69;;;26.55;62.44
56456;BME280;42354;53.218;6.564;2022-07-12T09:12:55;102235.03;;;27.01;57.48
56456;BME280;42354;53.218;6.564;2022-07-12T09:15:21;102235.66;;;27.12;55.47
56456;BME280;42354;53.218;6.564;2022-07-12T09:20:23;102233.09;;;27.37;54.92
56456;BME280;42354;53.218;6.564;2022-07-12T09:22:56;102231.72;;;27.58;57.05
56456;BME280;42354;53.218;6.564;2022-07-12T09:25:22;102231.56;;;27.86;55.13
56456;BME280;42354;53.218;6.564;2022-07-12T09:27:51;102235.81;;;27.72;53.87
56456;BME280;42354;53.218;6.564;2022-07-12T09:30:17;102233.25;;;27.79;55.42
56456;BME280;42354;53.218;6.564;2022-07-12T09:32:58;102231.59;;;27.42;53.35
56456;BME280;42354;53.218;6.564;2022-07-12T09:35:43;102226.22;;;27.23;56.75
56456;BME280;42354;53.218;6.564;2022-07-12T09:38:27;102230.03;;;27.22;55.31
56456;BME280;42354;53.218;6.564;2022-07-12T09:40:53;102239.13;;;27.14;55.97
56456;BME280;42354;53.218;6.564;2022-07-12T09:43:19;102236.41;;;26.87;56.40
56456;BME280;42354;53.218;6.564;2022-07-12T09:45:46;102234.75;;;26.76;57.29
56456;BME280;42354;53.218;6.564;2022-07-12T09:48:12;102233.66;;;26.87;57.14
56456;BME280;42354;53.218;6.564;2022-07-12T09:50:37;102238.50;;;27.03;55.32
56456;BME280;42354;53.218;6.564;2022-07-12T09:53:03;102228.06;;;27.14;54.75
56456;BME280;42354;53.218;6.564;2022-07-12T09:55:32;102232.06;;;27.38;55.07
56456;BME280;42354;53.218;6.564;2022-07-12T09:57:58;102228.22;;;27.74;53.72
56456;BME280;42354;53.218;6.564;2022-07-12T10:00:25;102238.19;;;27.93;52.09
56456;BME280;42354;53.218;6.564;2022-07-12T10:02:50;102221.03;;;27.64;52.40
56456;BME280;42354;53.218;6.564;2022-07-12T10:05:17;102231.34;;;27.36;52.92
56456;BME280;42354;53.218;6.564;2022-07-12T10:07:43;102219.72;;;26.96;54.46
56456;BME280;42354;53.218;6.564;2022-07-12T10:10:10;102237.53;;;26.76;53.92
56456;BME280;42354;53.218;6.564;2022-07-12T10:12:35;102224.41;;;27.14;53.83
56456;BME280;42354;53.218;6.564;2022-07-12T10:15:04;102212.25;;;27.50;51.97
56456;BME280;42354;53.218;6.564;2022-07-12T10:17:33;102215.44;;;27.81;51.15
56456;BME280;42354;53.218;6.564;2022-07-12T10:20:15;102207.22;;;28.06;50.91
56456;BME280;42354;53.218;6.564;2022-07-12T10:22:41;102213.34;;;28.51;50.79
56456;BME280;42354;53.218;6.564;2022-07-12T10:25:27;102219.56;;;28.45;50.68
56456;BME280;42354;53.218;6.564;2022-07-12T10:27:51;102221.09;;;28.40;49.86
56456;BME280;42354;53.218;6.564;2022-07-12T10:30:21;102216.16;;;28.68;49.49
56456;BME280;42354;53.218;6.564;2022-07-12T10:32:46;102216.25;;;29.08;47.98
56456;BME280;42354;53.218;6.564;2022-07-12T10:35:15;102220.75;;;29.26;47.06
56456;BME280;42354;53.218;6.564;2022-07-12T10:37:41;102211.88;;;29.63;46.46
56456;BME280;42354;53.218;6.564;2022-07-12T10:40:18;102214.19;;;29.43;45.50
56456;BME280;42354;53.218;6.564;2022-07-12T10:45:45;102212.56;;;29.73;46.85
56456;BME280;42354;53.218;6.564;2022-07-12T11:06:03;102207.28;;;30.02;41.71
56456;BME280;42354;53.218;6.564;2022-07-12T11:08:29;102203.56;;;30.18;40.78
56456;BME280;42354;53.218;6.564;2022-07-12T11:10:55;102206.22;;;30.11;41.07
56456;BME280;42354;53.218;6.564;2022-07-12T11:13:20;102203.81;;;30.39;40.89
56456;BME280;42354;53.218;6.564;2022-07-12T11:15:59;102207.69;;;30.69;40.55
56456;BME280;42354;53.218;6.564;2022-07-12T11:18:31;102204.69;;;30.01;39.42
56456;BME280;42354;53.218;6.564;2022-07-12T11:20:57;102197.78;;;28.75;41.94
56456;BME280;42354;53.218;6.564;2022-07-12T11:23:24;102195.84;;;27.83;44.19
56456;BME280;42354;53.218;6.564;2022-07-12T11:25:50;102197.16;;;27.71;44.20
56456;BME280;42354;53.218;6.564;2022-07-12T11:28:15;102198.63;;;27.83;42.28
56456;BME280;42354;53.218;6.564;2022-07-12T11:30:50;102196.22;;;28.22;42.06
56456;BME280;42354;53.218;6.564;2022-07-12T11:33:15;102197.38;;;28.53;41.37
56456;BME280;42354;53.218;6.564;2022-07-12T11:35:40;102200.00;;;28.63;39.98
56456;BME280;42354;53.218;6.564;2022-07-12T11:38:08;102203.66;;;28.64;40.16
56456;BME280;42354;53.218;6.564;2022-07-12T11:40:33;102205.66;;;28.37;40.14
56456;BME280;42354;53.218;6.564;2022-07-12T11:42:59;102198.06;;;28.47;40.36
56456;BME280;42354;53.218;6.564;2022-07-12T11:45:33;102190.88;;;28.95;41.19
56456;BME280;42354;53.218;6.564;2022-07-12T11:48:03;102187.06;;;29.37;41.15
56456;BME280;42354;53.218;6.564;2022-07-12T11:50:28;102186.66;;;29.80;40.93
56456;BME280;42354;53.218;6.564;2022-07-12T11:52:55;102196.94;;;30.27;39.64
56456;BME280;42354;53.218;6.564;2022-07-12T11:55:20;102185.63;;;30.60;39.76
56456;BME280;42354;53.218;6.564;2022-07-12T11:57:46;102185.34;;;31.00;39.32
56456;BME280;42354;53.218;6.564;2022-07-12T12:00:12;102194.19;;;31.04;37.42
56456;BME280;42354;53.218;6.564;2022-07-12T12:02:37;102189.13;;;31.07;36.54
56456;BME280;42354;53.218;6.564;2022-07-12T12:05:03;102185.34;;;31.46;35.68
56456;BME280;42354;53.218;6.564;2022-07-12T12:07:29;102195.50;;;31.39;34.13
56456;BME280;42354;53.218;6.564;2022-07-12T12:12:27;102182.25;;;30.72;35.07
56456;BME280;42354;53.218;6.564;2022-07-12T12:14:52;102172.31;;;30.00;36.19
56456;BME280;42354;53.218;6.564;2022-07-12T12:17:18;102177.88;;;30.00;36.84
56456;BME280;42354;53.218;6.564;2022-07-12T12:19:43;102176.13;;;30.15;36.57
56456;BME280;42354;53.218;6.564;2022-07-12T12:22:27;102179.72;;;30.55;35.65
56456;BME280;42354;53.218;6.564;2022-07-12T12:25:02;102185.81;;;30.58;35.83
56456;BME280;42354;53.218;6.564;2022-07-12T12:27:29;102183.84;;;30.36;35.68
56456;BME280;42354;53.218;6.564;2022-07-12T12:29:58;102187.19;;;30.62;35.16
56456;BME280;42354;53.218;6.564;2022-07-12T12:32:23;102181.94;;;31.13;35.70
56456;BME280;42354;53.218;6.564;2022-07-12T12:35:07;102184.06;;;31.34;35.52
56456;BME280;42354;53.218;6.564;2022-07-12T12:37:33;102182.88;;;31.66;35.50
56456;BME280;42354;53.218;6.564;2022-07-12T12:39:58;102180.78;;;31.30;34.94
56456;BME280;42354;53.218;6.564;2022-07-12T12:42:23;102171.78;;;30.74;35.54
56456;BME280;42354;53.218;6.564;2022-07-12T12:44:49;102179.53;;;29.78;37.83
56456;BME280;42354;53.218;6.564;2022-07-12T12:47:14;102170.56;;;29.43;37.75
56456;BME280;42354;53.218;6.564;2022-07-12T12:49:59;102172.13;;;29.46;37.67
56456;BME280;42354;53.218;6.564;2022-07-12T12:52:28;102169.00;;;29.49;37.36
56456;BME280;42354;53.218;6.564;2022-07-12T12:54:54;102161.38;;;28.86;37.62
56456;BME280;42354;53.218;6.564;2022-07-12T12:57:19;102158.03;;;28.74;39.25
56456;BME280;42354;53.218;6.564;2022-07-12T12:59:44;102162.31;;;28.44;39.50
56456;BME280;42354;53.218;6.564;2022-07-12T13:02:10;102159.19;;;28.39;39.98
56456;BME280;42354;53.218;6.564;2022-07-12T13:04:35;102149.31;;;28.53;40.46
56456;BME280;42354;53.218;6.564;2022-07-12T13:07:01;102153.81;;;28.38;40.97
56456;BME280;42354;53.218;6.564;2022-07-12T13:09:27;102153.97;;;28.36;42.05
56456;BME280;42354;53.218;6.564;2022-07-12T13:11:53;102152.34;;;29.16;40.96